Terminal Aerodrome Forecast
Issued by NWS

Home | Current Version | Previous Version | Text Only | Print | Product List | Glossary On
Versions: 1 2 3 4 5 6 7 8 9 10 11 12 13 14 15 16
000
FTUS44 KTSA 061700
TAFRVS
TAF
KRVS 061720Z 0618/0718 23011G19KT P6SM SKC
     FM070000 VRB03KT P6SM SKC
     FM071700 21008KT P6SM SKC=

USA.gov is the U.S. government's official web portal to all federal, state and local government web resources and services.